Saturday, February 06, 2016
20:39 UTC
  |  Log In   |  Register Free
Airport Search:

Gainesville Municipal Airport
(KGLE)

FAA data valid effective Dec 10 2015 - Feb 4 2016 (unless otherwise noted).

 
 
 
 
 
 
 
 
 
 
 
 
 
 
Current Aviation Weather for KGLE

Weather Summary


The most recent METAR observation for GLE was updated at: 12:55 UTC
METAR for KGLE is not available. Closest METAR is for KGYI
KGLE  (most recent observation was updatred at 62:01 UTC)
062015Z AUTO 02004KT 10SM SCT038 BKN046 11/00 A3037 RMK AO2 T01050004

KGYI  (26.4 nm SW)   (most recent observation was updated at 62:01 UTC)
062015Z AUTO 00000KT 10SM CLR 11/02 A3035 RMK AO2 T01080020

KDTO  (27.0 nm NE)   (most recent observation was updated at 61:95 UTC)
061953Z 01006KT 10SM OVC033 10/02 A3036 RMK AO2 SLP280 T01000022

TAF for KGLE is not available.
GlobalAir.com is loading additional information.
 Current Weather at GLE
50.0 F° (10.1 C°)

North winds at 5.8 mph
Pressure:
30.40 in
Humidity:
57%
Wind:
North at 5.8 mph
Dew Point:
35.4 F° (1.9 C°)
Visibility:
10.00 mi
GLE NOAA Radar




Find All Airport Services Find A Hotel Find A Rental Car Find A Golf Course Find A Restaurant $100 Hamburger



Airport Weather Forecast for KGLE

Translated METAR for KGLE (2015 UTC)
METAR:
KGLE 062015Z AUTO 02004KT 10SM SCT038 BKN046 11/00 A3037 RMK AO2 T01050004
Conditions at:
KGLE (Gainesville Muni, TX) observed 2015 UTC 06 February 2016
Temperature:
11°C (51.8°F)
Dewpoint:
0°C (32°F) [RH = 46.6]
Pressure:
30.37 inches Hg (1028.4 mb)
Winds:
from the NNE (020 degrees) at 4.6 mph (4 knots: 2.1 m/s)
Visibility:
10 mile(s)
Ceiling:
4,600 feet AGL
Clouds:
Scattered Clouds at 3,800 feet AGL
Broken Cloud Cover at 4,600 feet AGL
Remarks:
site is un-manned
site is automated and HAS a precipitation sensor

Translated TAF for TAF for GLE is not available. Refer to local area forecast.
FBO's on the Field
FBO Company Facility Photos Services Transportation Aviation Fuel Prices: Prices include tax
Catering Weather Repair Courtesy Rental Type 100LL JetA JetA+ MOGAS 8087
 
City of Gainesville Municipal Airport

This FBO has not yet been rated
FS:Phillips 66
Last Updated: Jan-07
Login to update fuel prices
SS:
Contact City of Gainesville Municipal AirportMore FBO Information
 
Add another FBO Facility Photos Catering Weather Repair Courtesy Rental Type 100LL JetA JetA+ MOGAS 8087
Services Transportation Aviation Fuel Prices: Prices include tax


model-print
model-print
model-print
model-print